Aviation Digital Data Service (ADDS)

Output produced by METARs form (1229 UTC 16 July 2019)
found at http://www.aviationweather.gov/metar/data/
 
GLRB 161200Z 26005KT 9999 BKN014 27/24 Q1014 NOSIG
TAF GLRB 161000Z 1612/1718 23010KT 9999 BKN018 
     BECMG 1616/1618 34008KT 7000 -RA BKN015 FEW025CB 
     TEMPO 1622/1702 00000KT BKN011 FEW023CB